createdAt,value
2023-01-29T00:02:24.122Z,5.26
2023-01-29T00:05:20.756Z,5.38
2023-01-29T00:08:00.478Z,5.51
2023-01-29T00:13:19.929Z,5.37
2023-01-29T00:16:03.312Z,5.33
2023-01-29T00:21:34.666Z,5.06
2023-01-29T00:24:05.292Z,4.86
2023-01-29T00:26:34.130Z,5.00
2023-01-29T00:29:02.847Z,4.96
2023-01-29T00:31:34.412Z,4.96
2023-01-29T00:34:09.083Z,4.90
2023-01-29T00:36:46.555Z,4.77
2023-01-29T00:39:33.726Z,4.95
2023-01-29T00:42:37.203Z,4.82
2023-01-29T00:45:35.860Z,5.40
2023-01-29T00:48:13.905Z,5.37
2023-01-29T00:50:49.057Z,5.07
2023-01-29T00:53:21.648Z,4.99
2023-01-29T00:55:48.308Z,4.75
2023-01-29T00:58:39.123Z,4.73
2023-01-29T01:01:47.106Z,4.92
2023-01-29T01:04:24.845Z,4.89
2023-01-29T01:07:02.307Z,4.88
2023-01-29T01:09:51.344Z,4.82
2023-01-29T01:12:36.808Z,4.78
2023-01-29T01:15:13.124Z,4.66
2023-01-29T01:17:49.154Z,4.82
2023-01-29T01:20:24.148Z,4.93
2023-01-29T01:23:02.359Z,4.90
2023-01-29T01:25:37.202Z,4.98
2023-01-29T01:31:04.309Z,4.81
2023-01-29T01:33:41.119Z,5.01
2023-01-29T01:36:24.968Z,4.79
2023-01-29T01:39:00.831Z,4.84
2023-01-29T01:41:31.057Z,4.83
2023-01-29T01:44:06.061Z,4.86
2023-01-29T01:46:39.319Z,4.88
2023-01-29T01:49:19.919Z,4.77
2023-01-29T01:54:48.869Z,4.83
2023-01-29T01:57:36.870Z,4.56
2023-01-29T02:00:27.784Z,4.55
2023-01-29T02:06:12.957Z,4.43
2023-01-29T02:09:24.763Z,4.52
2023-01-29T02:11:52.100Z,4.39
2023-01-29T02:14:22.423Z,4.54
2023-01-29T02:17:11.601Z,4.56
2023-01-29T02:20:18.399Z,4.68
2023-01-29T02:23:02.725Z,4.70
2023-01-29T02:26:18.446Z,4.55
2023-01-29T02:29:35.807Z,4.54
2023-01-29T02:35:34.943Z,4.58
2023-01-29T02:39:05.318Z,4.46
2023-01-29T02:41:41.877Z,4.40
2023-01-29T02:44:35.697Z,4.29
2023-01-29T02:47:51.067Z,4.46
2023-01-29T02:50:57.835Z,4.59
2023-01-29T02:53:32.707Z,4.43
2023-01-29T02:56:10.368Z,4.21
2023-01-29T02:58:43.367Z,4.41
2023-01-29T03:01:36.251Z,4.39
2023-01-29T03:04:11.701Z,4.25
2023-01-29T03:07:04.292Z,4.22
2023-01-29T03:09:41.673Z,4.36
2023-01-29T03:12:35.411Z,4.12
2023-01-29T03:15:14.390Z,4.12
2023-01-29T03:18:05.155Z,4.43
2023-01-29T03:20:51.126Z,4.23
2023-01-29T03:23:46.039Z,4.26
2023-01-29T03:26:34.835Z,4.10
2023-01-29T03:29:28.251Z,4.07
2023-01-29T03:32:07.024Z,4.08
2023-01-29T03:34:54.853Z,4.05
2023-01-29T03:37:44.010Z,3.99
2023-01-29T03:40:22.076Z,3.99
2023-01-29T03:43:16.919Z,3.79
2023-01-29T03:45:57.260Z,3.73
2023-01-29T03:49:32.494Z,3.70
2023-01-29T03:52:24.724Z,3.71
2023-01-29T03:55:02.180Z,3.91
2023-01-29T03:57:38.686Z,3.78
2023-01-29T04:00:21.803Z,3.74
2023-01-29T04:03:02.338Z,3.63
2023-01-29T04:05:41.476Z,3.65
2023-01-29T04:08:32.820Z,3.61
2023-01-29T04:11:34.921Z,3.58
2023-01-29T04:14:23.096Z,3.69
2023-01-29T04:17:25.307Z,3.55
2023-01-29T04:20:02.900Z,3.75
2023-01-29T04:22:40.171Z,3.66
2023-01-29T04:25:18.429Z,3.66
2023-01-29T04:27:57.831Z,3.57
2023-01-29T04:30:53.669Z,3.89
2023-01-29T04:33:47.501Z,3.93
2023-01-29T04:36:41.983Z,3.84
2023-01-29T04:39:51.017Z,3.61
2023-01-29T04:42:45.125Z,3.71
2023-01-29T04:45:39.315Z,3.71
2023-01-29T04:48:33.775Z,3.65
2023-01-29T04:51:20.425Z,3.53
2023-01-29T04:53:59.673Z,3.64
2023-01-29T04:56:37.317Z,3.51
2023-01-29T04:59:17.463Z,3.63
2023-01-29T05:01:44.825Z,3.63
2023-01-29T05:04:16.545Z,3.38
2023-01-29T05:06:49.295Z,3.35
2023-01-29T05:09:17.660Z,3.54
2023-01-29T05:11:46.504Z,3.45
2023-01-29T05:14:19.819Z,3.45
2023-01-29T05:17:06.148Z,3.40
2023-01-29T05:19:32.890Z,3.32
2023-01-29T05:22:16.721Z,3.36
2023-01-29T05:25:04.316Z,3.51
2023-01-29T05:27:54.445Z,3.24
2023-01-29T05:30:27.692Z,3.18
2023-01-29T05:33:11.455Z,3.24
2023-01-29T05:35:38.442Z,3.03
2023-01-29T05:41:08.186Z,3.07
2023-01-29T05:43:44.050Z,3.24
2023-01-29T05:46:22.817Z,3.40
2023-01-29T05:48:49.603Z,3.49
2023-01-29T05:51:19.192Z,3.30
2023-01-29T05:53:48.930Z,3.38
2023-01-29T05:56:25.990Z,3.35
2023-01-29T05:59:04.425Z,3.33
2023-01-29T06:01:54.779Z,3.22
2023-01-29T06:04:43.084Z,3.20
2023-01-29T06:07:12.648Z,3.16
2023-01-29T06:09:39.405Z,3.14
2023-01-29T06:12:09.240Z,3.07
2023-01-29T06:14:45.895Z,3.05
2023-01-29T06:17:19.479Z,3.00
2023-01-29T06:19:57.849Z,2.93
2023-01-29T06:22:30.524Z,2.84
2023-01-29T06:25:02.694Z,2.88
2023-01-29T06:27:50.468Z,2.91
2023-01-29T06:30:17.723Z,3.06
2023-01-29T06:32:47.630Z,3.01
2023-01-29T06:35:14.541Z,2.87
2023-01-29T06:37:48.797Z,2.88
2023-01-29T06:40:27.809Z,2.85
2023-01-29T06:42:58.505Z,3.07
2023-01-29T06:45:27.624Z,2.91
2023-01-29T06:47:54.410Z,2.98
2023-01-29T06:50:25.241Z,3.02
2023-01-29T06:53:02.518Z,3.17
2023-01-29T06:55:37.981Z,3.15
2023-01-29T06:58:14.175Z,2.96
2023-01-29T07:00:43.286Z,2.98
2023-01-29T07:03:14.754Z,3.15
2023-01-29T07:05:46.859Z,3.19
2023-01-29T07:08:13.891Z,2.93
2023-01-29T07:10:51.817Z,2.94
2023-01-29T07:13:19.886Z,3.11
2023-01-29T07:15:47.603Z,3.19
2023-01-29T07:18:38.101Z,3.19
2023-01-29T07:21:13.463Z,3.34
2023-01-29T07:23:55.537Z,3.25
2023-01-29T07:26:22.274Z,3.30
2023-01-29T07:28:49.059Z,3.19
2023-01-29T07:31:22.277Z,3.23
2023-01-29T07:34:09.458Z,3.21
2023-01-29T07:36:37.697Z,3.28
2023-01-29T07:39:04.448Z,3.27
2023-01-29T07:41:34.052Z,3.31
2023-01-29T07:44:00.794Z,3.44
2023-01-29T07:46:39.543Z,3.67
2023-01-29T07:49:06.306Z,3.45
2023-01-29T07:51:50.545Z,3.46
2023-01-29T07:54:30.455Z,3.53
2023-01-29T07:57:00.352Z,3.52
2023-01-29T07:59:29.759Z,3.48
2023-01-29T08:02:10.206Z,3.61
2023-01-29T08:04:47.815Z,3.58
2023-01-29T08:07:37.716Z,3.47
2023-01-29T08:10:11.605Z,3.66
2023-01-29T08:12:49.569Z,3.58
2023-01-29T08:15:28.224Z,3.67
2023-01-29T08:18:35.545Z,3.57
2023-01-29T08:21:23.964Z,3.82
2023-01-29T08:23:55.491Z,3.73
2023-01-29T08:26:26.525Z,3.99
2023-01-29T08:28:57.217Z,4.14
2023-01-29T08:31:25.660Z,4.31
2023-01-29T08:33:58.957Z,4.11
2023-01-29T08:36:33.316Z,4.06
2023-01-29T08:39:29.250Z,4.26
2023-01-29T08:42:05.564Z,4.14
2023-01-29T08:44:42.053Z,4.10
2023-01-29T08:47:28.643Z,4.45
2023-01-29T08:52:37.789Z,4.90
2023-01-29T08:55:04.987Z,4.89
2023-01-29T08:57:32.226Z,5.03
2023-01-29T09:00:05.758Z,4.84
2023-01-29T09:02:48.707Z,5.04
2023-01-29T09:05:16.565Z,4.78
2023-01-29T09:07:54.290Z,4.68
2023-01-29T09:10:29.645Z,4.60
2023-01-29T09:12:56.477Z,4.78
2023-01-29T09:15:30.089Z,4.90
2023-01-29T09:18:16.541Z,5.10
2023-01-29T09:20:48.031Z,5.07
2023-01-29T09:23:21.368Z,5.09
2023-01-29T09:26:12.519Z,5.41
2023-01-29T09:28:51.881Z,5.34
2023-01-29T09:31:18.821Z,5.42
2023-01-29T09:34:08.978Z,5.45
2023-01-29T09:36:48.310Z,5.42
2023-01-29T09:39:18.243Z,5.72
2023-01-29T09:42:19.108Z,5.71
2023-01-29T09:45:17.683Z,5.67
2023-01-29T09:48:12.086Z,6.06
2023-01-29T09:50:51.835Z,6.12
2023-01-29T09:53:33.664Z,6.32
2023-01-29T09:56:29.098Z,6.41
2023-01-29T09:59:05.580Z,6.58
2023-01-29T10:01:40.523Z,6.55
2023-01-29T10:04:18.987Z,6.60
2023-01-29T10:07:10.485Z,6.58
2023-01-29T10:09:46.164Z,6.72
2023-01-29T10:12:42.711Z,6.81
2023-01-29T10:15:53.784Z,6.67
2023-01-29T10:19:05.997Z,6.74
2023-01-29T10:21:52.772Z,6.74
2023-01-29T10:24:40.472Z,6.94
2023-01-29T10:27:18.337Z,7.12
2023-01-29T10:29:56.597Z,7.14
2023-01-29T10:32:26.339Z,7.16
2023-01-29T10:35:00.083Z,7.22
2023-01-29T10:37:37.007Z,7.38
2023-01-29T10:40:22.781Z,7.34
2023-01-29T10:43:38.873Z,7.10
2023-01-29T10:46:46.203Z,7.12
2023-01-29T10:49:20.578Z,7.13
2023-01-29T10:52:24.619Z,7.22
2023-01-29T10:55:19.427Z,7.13
2023-01-29T10:58:16.160Z,7.13
2023-01-29T11:00:56.270Z,7.41
2023-01-29T11:03:31.251Z,7.20
2023-01-29T11:06:36.912Z,7.11
2023-01-29T11:09:21.846Z,6.84
2023-01-29T11:12:14.237Z,6.79
2023-01-29T11:15:20.381Z,6.91
2023-01-29T11:18:26.377Z,7.16
2023-01-29T11:21:04.822Z,7.16
2023-01-29T11:23:37.116Z,7.15
2023-01-29T11:26:11.566Z,6.81
2023-01-29T11:28:47.463Z,7.00
2023-01-29T11:31:35.562Z,6.69
2023-01-29T11:34:36.335Z,6.69
2023-01-29T11:37:43.108Z,7.11
2023-01-29T11:40:22.544Z,7.27
2023-01-29T11:42:56.887Z,7.00
2023-01-29T11:45:37.884Z,7.02
2023-01-29T11:48:15.973Z,7.10
2023-01-29T11:51:05.532Z,7.36
2023-01-29T11:53:41.565Z,7.56
2023-01-29T11:56:34.215Z,7.77
2023-01-29T11:59:11.042Z,7.64
2023-01-29T12:02:01.354Z,7.76
2023-01-29T12:04:39.757Z,7.49
2023-01-29T12:10:26.297Z,7.50
2023-01-29T12:13:21.510Z,7.96
2023-01-29T12:15:56.802Z,8.10
2023-01-29T12:19:21.125Z,7.94
2023-01-29T12:22:27.676Z,7.84
2023-01-29T12:25:33.580Z,7.88
2023-01-29T12:28:42.517Z,7.69
2023-01-29T12:31:46.356Z,7.69
2023-01-29T12:37:36.642Z,7.44
2023-01-29T12:40:30.630Z,7.61
2023-01-29T12:43:30.604Z,7.58
2023-01-29T12:46:17.548Z,7.61
2023-01-29T12:49:02.654Z,7.61
2023-01-29T12:51:51.882Z,7.62
2023-01-29T12:54:42.654Z,7.77
2023-01-29T12:57:37.340Z,7.79
2023-01-29T13:00:18.373Z,7.85
2023-01-29T13:03:46.526Z,7.80
2023-01-29T13:06:59.661Z,7.83
2023-01-29T13:09:34.372Z,7.77
2023-01-29T13:12:07.335Z,7.82
2023-01-29T13:15:23.690Z,8.13
2023-01-29T13:18:08.370Z,8.00
2023-01-29T13:20:42.659Z,8.16
2023-01-29T13:26:47.009Z,8.33
2023-01-29T13:29:35.850Z,8.66
2023-01-29T13:32:36.023Z,8.75
2023-01-29T13:35:28.849Z,8.93
2023-01-29T13:38:12.959Z,9.25
2023-01-29T13:40:45.065Z,9.37
2023-01-29T13:43:24.018Z,9.28
2023-01-29T13:45:53.881Z,9.22
2023-01-29T13:48:52.785Z,9.62
2023-01-29T13:51:32.263Z,9.44
2023-01-29T13:54:08.350Z,9.43
2023-01-29T13:56:44.447Z,9.91
2023-01-29T13:59:53.764Z,9.68
2023-01-29T14:02:45.713Z,9.18
2023-01-29T14:05:36.505Z,9.06
2023-01-29T14:08:13.676Z,8.87
2023-01-29T14:10:44.639Z,8.98
2023-01-29T14:13:39.775Z,8.91
2023-01-29T14:16:17.788Z,8.86
2023-01-29T14:19:14.217Z,8.72
2023-01-29T14:22:06.157Z,8.86
2023-01-29T14:24:56.333Z,9.10
2023-01-29T14:27:32.943Z,9.28
2023-01-29T14:30:22.299Z,9.67
2023-01-29T14:33:03.539Z,9.75
2023-01-29T14:35:41.196Z,9.30
2023-01-29T14:38:11.066Z,9.18
2023-01-29T14:40:42.672Z,9.25
2023-01-29T14:43:33.099Z,8.76
2023-01-29T14:46:33.447Z,8.68
2023-01-29T14:49:04.420Z,9.38
2023-01-29T14:52:04.996Z,9.70
2023-01-29T14:54:49.296Z,9.55
2023-01-29T14:57:44.582Z,9.69
2023-01-29T15:00:51.294Z,9.48
2023-01-29T15:03:44.522Z,9.03
2023-01-29T15:06:23.197Z,9.24
2023-01-29T15:09:02.938Z,8.78
2023-01-29T15:12:14.158Z,8.60
2023-01-29T15:14:55.971Z,8.74
2023-01-29T15:17:57.985Z,8.75
2023-01-29T15:20:37.497Z,9.44
2023-01-29T15:23:33.287Z,9.26
2023-01-29T15:26:11.716Z,9.40
2023-01-29T15:28:47.107Z,9.55
2023-01-29T15:31:18.737Z,9.70
2023-01-29T15:33:49.137Z,9.65
2023-01-29T15:36:34.508Z,9.72
2023-01-29T15:39:40.963Z,9.36
2023-01-29T15:42:25.979Z,9.28
2023-01-29T15:45:03.364Z,9.32
2023-01-29T15:47:37.678Z,8.63
2023-01-29T15:50:18.292Z,8.35
2023-01-29T15:52:58.313Z,8.37
2023-01-29T15:55:29.005Z,8.49
2023-01-29T15:57:56.248Z,8.56
2023-01-29T16:00:26.521Z,8.31
2023-01-29T16:02:53.848Z,8.25
2023-01-29T16:05:45.172Z,8.10
2023-01-29T16:08:24.867Z,8.01
2023-01-29T16:11:03.535Z,7.64
2023-01-29T16:13:48.368Z,7.50
2023-01-29T16:16:26.518Z,7.49
2023-01-29T16:19:00.749Z,7.20
2023-01-29T16:21:43.700Z,7.11
2023-01-29T16:24:27.365Z,7.05
2023-01-29T16:27:09.541Z,6.93
2023-01-29T16:29:49.551Z,6.89
2023-01-29T16:32:48.633Z,6.79
2023-01-29T16:35:23.667Z,6.86
2023-01-29T16:38:10.820Z,6.74
2023-01-29T16:40:46.059Z,6.52
2023-01-29T16:43:20.716Z,6.44
2023-01-29T16:46:04.563Z,6.44
2023-01-29T16:48:40.243Z,6.30
2023-01-29T16:51:25.853Z,6.27
2023-01-29T16:54:18.497Z,6.35
2023-01-29T16:56:52.918Z,6.24
2023-01-29T16:59:29.190Z,6.27
2023-01-29T17:02:04.539Z,6.30
2023-01-29T17:04:41.856Z,6.24
2023-01-29T17:07:28.933Z,6.23
2023-01-29T17:10:02.073Z,6.17
2023-01-29T17:12:39.691Z,6.16
2023-01-29T17:15:35.315Z,6.05
2023-01-29T17:18:02.910Z,5.94
2023-01-29T17:20:37.610Z,6.03
2023-01-29T17:23:15.494Z,6.02
2023-01-29T17:25:42.630Z,6.10
2023-01-29T17:28:19.056Z,5.91
2023-01-29T17:31:05.879Z,5.87
2023-01-29T17:33:42.573Z,5.87
2023-01-29T17:36:22.559Z,5.85
2023-01-29T17:38:49.601Z,6.03
2023-01-29T17:41:40.795Z,6.09
2023-01-29T17:44:10.519Z,5.91
2023-01-29T17:46:50.706Z,5.90
2023-01-29T17:49:29.056Z,5.98
2023-01-29T17:52:06.159Z,5.93
2023-01-29T17:54:34.925Z,5.67
2023-01-29T17:57:07.462Z,5.61
2023-01-29T17:59:43.066Z,5.60
2023-01-29T18:02:29.760Z,5.64
2023-01-29T18:05:18.259Z,5.62
2023-01-29T18:07:55.136Z,5.54
2023-01-29T18:10:33.750Z,5.48
2023-01-29T18:13:04.237Z,5.57
2023-01-29T18:15:49.590Z,5.53
2023-01-29T18:18:34.099Z,5.48
2023-01-29T18:21:22.693Z,5.43
2023-01-29T18:23:51.678Z,5.41
2023-01-29T18:26:26.085Z,5.49
2023-01-29T18:28:52.942Z,5.46
2023-01-29T18:31:29.891Z,5.27
2023-01-29T18:33:58.769Z,5.32
2023-01-29T18:36:26.335Z,5.28
2023-01-29T18:39:05.813Z,5.14
2023-01-29T18:41:34.176Z,5.12
2023-01-29T18:44:04.012Z,5.32
2023-01-29T18:46:46.917Z,5.20
2023-01-29T18:49:53.111Z,5.12
2023-01-29T18:52:50.264Z,5.19
2023-01-29T18:55:21.268Z,5.16
2023-01-29T18:58:26.248Z,5.15
2023-01-29T19:00:57.714Z,5.18
2023-01-29T19:03:27.065Z,5.00
2023-01-29T19:06:01.365Z,4.98
2023-01-29T19:08:28.569Z,5.11
2023-01-29T19:10:55.581Z,4.93
2023-01-29T19:13:27.296Z,5.03
2023-01-29T19:15:54.803Z,5.00
2023-01-29T19:18:21.819Z,5.04
2023-01-29T19:20:56.131Z,4.95
2023-01-29T19:23:28.457Z,4.87
2023-01-29T19:25:58.308Z,4.85
2023-01-29T19:28:38.193Z,4.87
2023-01-29T19:31:09.636Z,4.85
2023-01-29T19:33:46.053Z,4.84
2023-01-29T19:36:25.147Z,4.72
2023-01-29T19:39:03.783Z,4.85
2023-01-29T19:41:37.539Z,4.89
2023-01-29T19:44:06.842Z,4.88
2023-01-29T19:46:45.770Z,4.68
2023-01-29T19:49:13.294Z,4.81
2023-01-29T19:51:41.108Z,4.88
2023-01-29T19:54:12.955Z,4.77
2023-01-29T19:56:39.779Z,4.72
2023-01-29T19:59:15.860Z,4.59
2023-01-29T20:01:46.888Z,4.51
2023-01-29T20:04:19.287Z,4.55
2023-01-29T20:06:46.166Z,4.52
2023-01-29T20:09:16.555Z,4.53
2023-01-29T20:11:43.366Z,4.48
2023-01-29T20:14:13.129Z,4.57
2023-01-29T20:16:42.884Z,4.39
2023-01-29T20:19:14.195Z,4.34
2023-01-29T20:21:51.324Z,4.38
2023-01-29T20:24:25.220Z,4.45
2023-01-29T20:26:55.191Z,4.34
2023-01-29T20:29:38.493Z,4.42
2023-01-29T20:32:15.360Z,4.33
2023-01-29T20:34:53.446Z,4.12
2023-01-29T20:37:29.604Z,4.36
2023-01-29T20:39:56.554Z,4.30
2023-01-29T20:42:32.321Z,4.32
2023-01-29T20:45:05.925Z,4.35
2023-01-29T20:47:43.184Z,4.46
2023-01-29T20:50:11.875Z,4.18
2023-01-29T20:52:43.157Z,4.20
2023-01-29T20:55:14.232Z,4.19
2023-01-29T20:57:42.760Z,4.24
2023-01-29T21:00:15.700Z,4.18
2023-01-29T21:02:59.781Z,4.22
2023-01-29T21:05:30.730Z,4.25
2023-01-29T21:08:07.210Z,4.26
2023-01-29T21:10:35.651Z,4.08
2023-01-29T21:13:05.541Z,4.07
2023-01-29T21:15:35.534Z,4.04
2023-01-29T21:18:04.672Z,4.06
2023-01-29T21:20:31.964Z,4.18
2023-01-29T21:22:58.898Z,4.14
2023-01-29T21:25:25.732Z,4.12
2023-01-29T21:28:05.822Z,4.13
2023-01-29T21:30:36.328Z,4.14
2023-01-29T21:33:12.479Z,4.20
2023-01-29T21:35:45.247Z,4.14
2023-01-29T21:38:12.297Z,4.15
2023-01-29T21:40:50.722Z,3.98
2023-01-29T21:43:30.608Z,4.03
2023-01-29T21:46:08.600Z,4.05
2023-01-29T21:48:52.733Z,4.03
2023-01-29T21:51:39.139Z,3.89
2023-01-29T21:54:12.839Z,3.94
2023-01-29T21:59:35.349Z,3.92
2023-01-29T22:02:03.634Z,3.99
2023-01-29T22:04:43.503Z,3.87
2023-01-29T22:07:17.028Z,3.69
2023-01-29T22:09:43.851Z,3.77
2023-01-29T22:12:12.328Z,3.81
2023-01-29T22:14:42.361Z,3.89
2023-01-29T22:17:19.641Z,3.84
2023-01-29T22:20:17.820Z,3.95
2023-01-29T22:23:05.254Z,3.85
2023-01-29T22:25:52.950Z,3.76
2023-01-29T22:28:32.438Z,3.77
2023-01-29T22:31:14.102Z,3.83
2023-01-29T22:33:41.914Z,3.76
2023-01-29T22:36:11.960Z,3.86
2023-01-29T22:38:48.840Z,3.74
2023-01-29T22:41:27.055Z,3.67
2023-01-29T22:43:53.949Z,3.64
2023-01-29T22:46:44.295Z,3.68
2023-01-29T22:49:13.762Z,3.57
2023-01-29T22:51:46.277Z,3.67
2023-01-29T22:54:14.181Z,3.55
2023-01-29T22:56:45.083Z,3.48
2023-01-29T22:59:14.109Z,3.49
2023-01-29T23:01:41.031Z,3.54
2023-01-29T23:04:18.182Z,3.50
2023-01-29T23:06:55.487Z,3.44
2023-01-29T23:09:46.951Z,3.33
2023-01-29T23:12:19.945Z,3.42
2023-01-29T23:14:46.899Z,3.39
2023-01-29T23:17:22.990Z,3.40
2023-01-29T23:20:01.422Z,3.52
2023-01-29T23:22:28.298Z,3.51
2023-01-29T23:25:05.250Z,3.51
2023-01-29T23:27:34.199Z,3.48
2023-01-29T23:30:03.489Z,3.38
2023-01-29T23:32:43.792Z,3.43
2023-01-29T23:35:10.735Z,3.32
2023-01-29T23:38:03.104Z,3.32
2023-01-29T23:40:39.987Z,3.47
2023-01-29T23:43:15.885Z,3.47
2023-01-29T23:45:45.723Z,3.36
2023-01-29T23:48:12.599Z,3.33
2023-01-29T23:50:42.505Z,3.27
2023-01-29T23:53:11.921Z,3.39
2023-01-29T23:55:38.782Z,3.31
2023-01-29T23:58:08.128Z,3.24
